Time;durP1;ratioP1;P1;durP2;ratioP2;P2;SDS_P1;SDS_P2;PMS_P1;PMS_P2;Temp;Humidity;BMP_temperature;BMP_pressure;BME280_temperature;BME280_humidity;BME280_pressure;Samples;Min_cycle;Max_cycle;Signal;HPM_P1;HPM_P2
2024/01/27 00:01:40;;;;;;;26.60;5.53;;;4.00;99.90;;;;;;5069974;28;20532;-82
2024/01/27 00:04:06;;;;;;;20.80;5.40;;;4.00;99.90;;;;;;5069202;28;20049;-82
2024/01/27 00:06:31;;;;;;;24.70;5.93;;;4.00;99.90;;;;;;5069312;28;20056;-82
2024/01/27 00:08:58;;;;;;;22.03;4.53;;;4.00;99.90;;;;;;5068821;28;20140;-82
2024/01/27 00:11:24;;;;;;;23.67;5.60;;;4.00;99.90;;;;;;5071121;28;20044;-82
2024/01/27 00:13:50;;;;;;;21.80;6.13;;;4.00;99.90;;;;;;5070431;28;20507;-81
2024/01/27 00:16:16;;;;;;;24.77;6.23;;;4.10;99.90;;;;;;5067581;28;20055;-82
2024/01/27 00:18:41;;;;;;;22.70;4.33;;;4.10;99.90;;;;;;5068976;28;20148;-82
2024/01/27 00:21:08;;;;;;;23.13;5.03;;;4.10;99.90;;;;;;5069282;28;20571;-81
2024/01/27 00:23:37;;;;;;;18.50;4.93;;;4.10;99.90;;;;;;5070483;28;20051;-82
2024/01/27 00:26:02;;;;;;;21.60;5.03;;;4.10;99.90;;;;;;5069614;28;20091;-82
2024/01/27 00:28:28;;;;;;;24.47;4.63;;;4.10;99.90;;;;;;5067885;28;20590;-82
2024/01/27 00:30:54;;;;;;;20.03;5.90;;;4.00;99.90;;;;;;5065602;28;20048;-82
2024/01/27 00:33:20;;;;;;;16.90;4.67;;;4.00;99.90;;;;;;5070475;28;20044;-82
2024/01/27 00:35:45;;;;;;;22.80;5.17;;;4.00;99.90;;;;;;5067917;28;20045;-82
2024/01/27 00:38:11;;;;;;;19.43;4.50;;;4.00;99.90;;;;;;5068688;28;20149;-82
2024/01/27 00:40:37;;;;;;;28.63;5.27;;;4.00;99.90;;;;;;5070823;28;20047;-82
2024/01/27 00:43:03;;;;;;;20.87;5.03;;;4.00;99.90;;;;;;5067777;28;20422;-82
2024/01/27 00:45:30;;;;;;;18.47;4.53;;;3.90;99.90;;;;;;5069029;28;20115;-82
2024/01/27 00:47:56;;;;;;;26.23;5.77;;;3.90;99.90;;;;;;5071519;28;20095;-83
2024/01/27 00:50:22;;;;;;;19.80;4.63;;;3.90;99.90;;;;;;5069076;28;20506;-82
2024/01/27 00:52:49;;;;;;;21.10;4.80;;;3.90;99.90;;;;;;5066788;28;20040;-82
2024/01/27 00:55:15;;;;;;;22.47;5.00;;;3.90;99.90;;;;;;5066824;28;20514;-82
2024/01/27 00:57:41;;;;;;;24.93;5.43;;;3.90;99.90;;;;;;5067863;28;20044;-82
2024/01/27 01:00:08;;;;;;;22.23;4.90;;;3.90;99.90;;;;;;5070364;28;20079;-82
2024/01/27 01:02:35;;;;;;;19.23;4.63;;;3.90;99.90;;;;;;5069654;28;20041;-82
2024/01/27 01:05:01;;;;;;;20.33;4.80;;;3.90;99.90;;;;;;5068206;28;20100;-81
2024/01/27 01:07:26;;;;;;;20.97;4.80;;;3.80;99.90;;;;;;5068174;28;20653;-82
2024/01/27 01:09:52;;;;;;;17.63;4.50;;;3.80;99.90;;;;;;5070337;28;20483;-82
2024/01/27 01:12:18;;;;;;;25.87;4.97;;;3.70;99.90;;;;;;5070999;28;20059;-82
2024/01/27 01:14:44;;;;;;;17.57;4.70;;;3.70;99.90;;;;;;5072722;28;20079;-82
2024/01/27 01:17:10;;;;;;;16.37;4.67;;;3.70;99.90;;;;;;5067535;28;20399;-82
2024/01/27 01:19:40;;;;;;;26.37;5.50;;;3.70;99.90;;;;;;5068202;28;20060;-82
2024/01/27 01:22:06;;;;;;;30.50;5.80;;;3.70;99.90;;;;;;5069735;28;20056;-82
2024/01/27 01:24:32;;;;;;;23.03;5.33;;;3.70;99.90;;;;;;5070471;28;20048;-82
2024/01/27 01:26:59;;;;;;;26.53;5.47;;;3.70;99.90;;;;;;5069752;28;20824;-82
2024/01/27 01:29:24;;;;;;;17.67;4.43;;;3.70;99.90;;;;;;5065498;28;20535;-82
2024/01/27 01:31:50;;;;;;;21.60;5.07;;;3.70;99.90;;;;;;5067624;28;20103;-82
2024/01/27 01:34:16;;;;;;;16.67;5.10;;;3.70;99.90;;;;;;5069380;28;20059;-82
2024/01/27 01:36:42;;;;;;;25.37;5.17;;;3.60;99.90;;;;;;5070091;28;20538;-82
2024/01/27 01:39:09;;;;;;;17.77;4.83;;;3.60;99.90;;;;;;5065226;28;20037;-82
2024/01/27 01:41:35;;;;;;;20.43;5.50;;;3.60;99.90;;;;;;5070157;28;20399;-82
2024/01/27 01:44:01;;;;;;;22.13;4.83;;;3.60;99.90;;;;;;5068083;28;20048;-82
2024/01/27 01:46:27;;;;;;;19.80;4.77;;;3.60;99.90;;;;;;5051595;28;20496;-82
2024/01/27 01:48:53;;;;;;;19.13;4.77;;;3.60;99.90;;;;;;5070417;28;20046;-82
2024/01/27 01:51:19;;;;;;;20.33;4.60;;;3.60;99.90;;;;;;5065839;28;20118;-82
2024/01/27 01:53:48;;;;;;;14.83;4.07;;;3.60;99.90;;;;;;5073952;28;20057;-82
2024/01/27 01:56:15;;;;;;;20.33;4.67;;;3.60;99.90;;;;;;5072001;28;20044;-82
2024/01/27 01:58:41;;;;;;;17.93;4.53;;;3.50;99.90;;;;;;5073921;28;20391;-82
2024/01/27 02:01:07;;;;;;;13.27;4.17;;;3.60;99.90;;;;;;5057007;28;20602;-82
2024/01/27 02:03:33;;;;;;;18.37;4.37;;;3.50;99.90;;;;;;5072152;28;20096;-83
2024/01/27 02:05:58;;;;;;;13.63;4.43;;;3.60;99.90;;;;;;5067918;28;20041;-82
2024/01/27 02:08:24;;;;;;;22.67;4.90;;;3.50;99.90;;;;;;5073490;28;20115;-83
2024/01/27 02:10:50;;;;;;;25.93;6.27;;;3.50;99.90;;;;;;5070122;28;20122;-83
2024/01/27 02:13:21;;;;;;;20.17;5.80;;;3.50;99.90;;;;;;5072790;28;20049;-82
2024/01/27 02:15:48;;;;;;;21.43;4.63;;;3.50;99.90;;;;;;5070122;28;20076;-82
2024/01/27 02:18:14;;;;;;;17.20;4.67;;;3.50;99.90;;;;;;5067240;28;20048;-83
2024/01/27 02:20:40;;;;;;;20.27;4.60;;;3.50;99.90;;;;;;5072591;28;20100;-83
2024/01/27 02:23:06;;;;;;;24.77;5.07;;;3.50;99.90;;;;;;5073234;28;20079;-82
2024/01/27 02:25:35;;;;;;;19.70;5.17;;;3.50;99.90;;;;;;5071757;28;20048;-82
2024/01/27 02:28:04;;;;;;;19.63;4.33;;;3.50;99.90;;;;;;5073586;28;20684;-82
2024/01/27 02:30:30;;;;;;;18.60;5.17;;;3.50;99.90;;;;;;5052294;28;20107;-82
2024/01/27 02:32:57;;;;;;;19.37;4.80;;;3.50;99.90;;;;;;5072217;28;20514;-83
2024/01/27 02:35:23;;;;;;;24.23;4.77;;;3.50;99.90;;;;;;5071081;28;20075;-83
2024/01/27 02:37:49;;;;;;;17.47;4.37;;;3.50;99.90;;;;;;5072208;28;20044;-83
2024/01/27 02:40:15;;;;;;;17.33;5.17;;;3.50;99.90;;;;;;5070559;28;20122;-82
2024/01/27 02:42:44;;;;;;;24.93;5.13;;;3.60;99.90;;;;;;5069667;28;20046;-82
2024/01/27 02:45:11;;;;;;;17.63;4.50;;;3.60;99.90;;;;;;5070066;28;20044;-82
2024/01/27 02:47:43;;;;;;;22.50;4.60;;;3.50;99.90;;;;;;5069961;28;20510;-82
2024/01/27 02:50:09;;;;;;;14.60;4.23;;;3.60;99.90;;;;;;5071843;28;20032;-83
2024/01/27 02:52:35;;;;;;;17.53;4.40;;;3.60;99.90;;;;;;5069522;28;20102;-83
2024/01/27 02:55:01;;;;;;;20.10;4.77;;;3.60;99.90;;;;;;5053834;28;20504;-82
2024/01/27 02:57:27;;;;;;;17.50;4.90;;;3.60;99.90;;;;;;5071394;28;20067;-82
2024/01/27 02:59:52;;;;;;;28.93;4.93;;;3.60;99.90;;;;;;5069083;28;20077;-82
2024/01/27 03:02:18;;;;;;;20.30;4.27;;;3.60;99.90;;;;;;5070711;28;20094;-82
2024/01/27 03:04:44;;;;;;;19.67;5.53;;;3.60;99.90;;;;;;5071196;28;20079;-82
2024/01/27 03:07:09;;;;;;;16.37;4.20;;;3.60;99.90;;;;;;5068663;28;20040;-82
2024/01/27 03:09:36;;;;;;;18.37;4.40;;;3.60;99.90;;;;;;5072451;28;20582;-82
2024/01/27 03:12:02;;;;;;;24.20;4.77;;;3.60;99.90;;;;;;5068403;28;20316;-82
2024/01/27 03:14:28;;;;;;;18.80;5.43;;;3.60;99.90;;;;;;5072776;28;20049;-82
2024/01/27 03:16:54;;;;;;;13.13;4.03;;;3.50;99.90;;;;;;5069673;28;20077;-82
2024/01/27 03:19:20;;;;;;;14.93;4.50;;;3.50;99.90;;;;;;5072464;28;20155;-82
2024/01/27 03:21:46;;;;;;;15.97;4.50;;;3.40;99.90;;;;;;5074116;28;20041;-82
2024/01/27 03:24:12;;;;;;;14.40;4.10;;;3.40;99.90;;;;;;5069786;28;20625;-82
2024/01/27 03:26:37;;;;;;;18.07;4.07;;;3.40;99.90;;;;;;5066594;28;20381;-82
2024/01/27 03:29:03;;;;;;;23.53;4.83;;;3.40;99.90;;;;;;5069596;28;20055;-82
2024/01/27 03:31:34;;;;;;;22.53;4.70;;;3.40;99.90;;;;;;5069109;28;20473;-81
2024/01/27 03:34:01;;;;;;;23.45;4.20;;;3.30;99.90;;;;;;5065487;28;20396;-82
2024/01/27 03:36:27;;;;;;;18.30;4.50;;;3.30;99.90;;;;;;5067922;28;20078;-82
2024/01/27 03:38:54;;;;;;;15.60;3.80;;;3.30;99.90;;;;;;5066304;28;20056;-83
2024/01/27 03:41:20;;;;;;;16.80;4.30;;;3.20;99.90;;;;;;5069227;28;20044;-82
2024/01/27 03:43:45;;;;;;;20.00;4.57;;;3.20;99.90;;;;;;5071528;28;20576;-82
2024/01/27 03:46:11;;;;;;;23.23;6.00;;;3.20;99.90;;;;;;5071754;28;20447;-82
2024/01/27 03:48:37;;;;;;;18.03;5.50;;;3.20;99.90;;;;;;5070264;28;20109;-82
2024/01/27 03:51:03;;;;;;;19.43;4.90;;;3.20;99.90;;;;;;5066465;28;20083;-82
2024/01/27 03:53:29;;;;;;;17.47;5.30;;;3.20;99.90;;;;;;5071366;28;20096;-83
2024/01/27 03:55:58;;;;;;;15.73;4.20;;;3.20;99.90;;;;;;5068505;28;20136;-82
2024/01/27 03:58:25;;;;;;;17.50;4.23;;;3.20;99.90;;;;;;5069032;28;20106;-82
2024/01/27 04:00:51;;;;;;;17.87;4.37;;;3.20;99.90;;;;;;5070686;28;20528;-82
2024/01/27 04:03:17;;;;;;;18.73;4.80;;;3.20;99.90;;;;;;5068396;28;20522;-83
2024/01/27 04:05:43;;;;;;;19.30;5.17;;;3.20;99.90;;;;;;5070676;28;20040;-82
2024/01/27 04:08:08;;;;;;;14.53;4.10;;;3.20;99.90;;;;;;5050048;28;20051;-82
2024/01/27 04:10:36;;;;;;;21.87;5.10;;;3.20;99.90;;;;;;5070260;28;20074;-83
2024/01/27 04:13:02;;;;;;;24.17;4.53;;;3.10;99.90;;;;;;5071441;28;20045;-82
2024/01/27 04:15:29;;;;;;;19.17;4.83;;;3.10;99.90;;;;;;5068245;28;20556;-82
2024/01/27 04:17:55;;;;;;;17.40;5.00;;;3.20;99.90;;;;;;5064974;28;20039;-81
2024/01/27 04:20:21;;;;;;;18.33;5.00;;;3.20;99.90;;;;;;5070318;28;20124;-81
2024/01/27 04:22:47;;;;;;;18.47;4.33;;;3.20;99.90;;;;;;5068626;28;20503;-82
2024/01/27 04:25:13;;;;;;;17.90;4.53;;;3.20;99.90;;;;;;5072351;28;20056;-81
2024/01/27 04:27:40;;;;;;;18.97;4.70;;;3.20;99.90;;;;;;5070190;28;20111;-82
2024/01/27 04:30:07;;;;;;;20.90;5.30;;;3.20;99.90;;;;;;5071393;28;20044;-81
2024/01/27 04:32:32;;;;;;;14.07;4.40;;;3.20;99.90;;;;;;5065112;28;20656;-81
2024/01/27 04:34:58;;;;;;;18.80;4.83;;;3.20;99.90;;;;;;5067747;28;20048;-82
2024/01/27 04:37:29;;;;;;;13.60;4.80;;;3.20;99.90;;;;;;5063312;28;20083;-81
2024/01/27 04:39:55;;;;;;;19.03;5.07;;;3.20;99.90;;;;;;5069820;28;20032;-80
2024/01/27 04:42:21;;;;;;;22.53;4.73;;;3.20;99.90;;;;;;5072210;28;20109;-81
2024/01/27 04:44:46;;;;;;;16.47;4.40;;;3.20;99.90;;;;;;5068208;28;20120;-81
2024/01/27 04:47:12;;;;;;;16.47;5.10;;;3.30;99.90;;;;;;5067772;28;20075;-81
2024/01/27 04:49:38;;;;;;;15.33;4.60;;;3.20;99.90;;;;;;5065893;28;20048;-81
2024/01/27 04:52:04;;;;;;;19.87;5.23;;;3.20;99.90;;;;;;5070439;28;20033;-81
2024/01/27 04:54:29;;;;;;;18.53;4.40;;;3.20;99.90;;;;;;5068580;28;20060;-82
2024/01/27 04:56:55;;;;;;;17.40;4.87;;;3.20;99.90;;;;;;5067961;28;20364;-81
2024/01/27 04:59:21;;;;;;;18.60;4.67;;;3.30;99.90;;;;;;5069310;28;20053;-81
2024/01/27 05:01:47;;;;;;;17.87;4.93;;;3.20;99.90;;;;;;5068790;28;20040;-81
2024/01/27 05:04:13;;;;;;;16.90;4.63;;;3.20;99.90;;;;;;5069492;28;20036;-81
2024/01/27 05:06:43;;;;;;;17.23;4.30;;;3.20;99.90;;;;;;5068141;28;20032;-81
2024/01/27 05:09:09;;;;;;;22.43;4.73;;;3.20;99.90;;;;;;5046793;28;20544;-81
2024/01/27 05:11:34;;;;;;;22.00;5.07;;;3.10;99.90;;;;;;5067603;28;20045;-81
2024/01/27 05:14:00;;;;;;;18.80;4.37;;;3.10;99.90;;;;;;5069615;28;20056;-80
2024/01/27 05:16:27;;;;;;;22.07;5.27;;;3.00;99.90;;;;;;5069743;28;20056;-81
2024/01/27 05:18:53;;;;;;;17.20;4.83;;;2.90;99.90;;;;;;5052243;28;20040;-82
2024/01/27 05:21:19;;;;;;;18.60;4.87;;;2.90;99.90;;;;;;5069377;28;20040;-81
2024/01/27 05:23:44;;;;;;;16.30;5.27;;;2.80;99.90;;;;;;5070021;28;20104;-81
2024/01/27 05:26:13;;;;;;;19.80;5.27;;;2.70;99.90;;;;;;5071659;28;20522;-82
2024/01/27 05:28:39;;;;;;;21.90;5.30;;;2.70;99.90;;;;;;5069811;28;20072;-81
2024/01/27 05:31:08;;;;;;;20.67;5.50;;;2.80;99.90;;;;;;5070935;28;20037;-81
2024/01/27 05:33:35;;;;;;;20.73;5.03;;;2.80;99.90;;;;;;5069112;28;20072;-81
2024/01/27 05:36:01;;;;;;;20.13;5.23;;;2.80;99.90;;;;;;5076159;28;20040;-81
2024/01/27 05:38:28;;;;;;;21.47;5.77;;;2.80;99.90;;;;;;5069897;28;20068;-81
2024/01/27 05:40:54;;;;;;;17.00;5.70;;;2.90;99.90;;;;;;5074619;28;20083;-82
2024/01/27 05:43:19;;;;;;;19.70;5.40;;;2.90;99.90;;;;;;5070856;28;20021;-81
2024/01/27 05:45:46;;;;;;;16.97;5.00;;;2.80;99.90;;;;;;5070147;28;20047;-81
2024/01/27 05:48:12;;;;;;;19.03;5.00;;;2.80;99.90;;;;;;5074682;28;20044;-80
2024/01/27 05:50:37;;;;;;;15.40;4.93;;;2.80;99.90;;;;;;5070292;28;20040;-82
2024/01/27 05:53:03;;;;;;;21.00;4.90;;;2.80;99.90;;;;;;5072313;28;20064;-82
2024/01/27 05:55:29;;;;;;;19.77;5.67;;;2.80;99.90;;;;;;5066914;28;20397;-82
2024/01/27 05:57:56;;;;;;;20.73;5.47;;;2.80;99.90;;;;;;5073361;28;20036;-81
2024/01/27 06:00:22;;;;;;;19.10;5.13;;;2.80;99.90;;;;;;5074595;28;20511;-82
2024/01/27 06:02:48;;;;;;;20.40;5.67;;;2.80;99.90;;;;;;5073448;28;20059;-82
2024/01/27 06:05:14;;;;;;;21.60;6.03;;;2.80;99.90;;;;;;5072573;28;20155;-82
2024/01/27 06:07:40;;;;;;;17.67;5.17;;;2.90;99.90;;;;;;5075181;28;20080;-81
2024/01/27 06:10:09;;;;;;;20.30;5.47;;;2.90;99.90;;;;;;5071806;28;20037;-81
2024/01/27 06:12:37;;;;;;;19.90;5.53;;;2.80;99.90;;;;;;5073555;28;20060;-82
2024/01/27 06:15:03;;;;;;;17.27;5.60;;;2.80;99.90;;;;;;5068130;28;20053;-82
2024/01/27 06:17:29;;;;;;;15.20;5.30;;;2.80;99.90;;;;;;5060549;28;20072;-82
2024/01/27 06:19:55;;;;;;;19.40;6.07;;;2.80;99.90;;;;;;5073199;28;20041;-82
2024/01/27 06:22:21;;;;;;;22.53;6.17;;;2.80;99.90;;;;;;5068005;28;20498;-81
2024/01/27 06:24:46;;;;;;;15.27;4.63;;;2.90;99.90;;;;;;5069251;28;20037;-81
2024/01/27 06:27:13;;;;;;;19.50;5.27;;;2.90;99.90;;;;;;5064212;28;20080;-83
2024/01/27 06:29:40;;;;;;;21.00;5.43;;;2.80;99.90;;;;;;5046120;28;20052;-82
2024/01/27 06:32:06;;;;;;;18.87;5.40;;;2.80;99.90;;;;;;5066056;28;20395;-81
2024/01/27 06:34:33;;;;;;;18.80;6.00;;;2.80;99.90;;;;;;5066656;28;20049;-81
2024/01/27 06:36:58;;;;;;;27.63;6.50;;;2.80;99.90;;;;;;5067091;28;20114;-82
2024/01/27 06:39:24;;;;;;;21.23;6.30;;;2.80;99.90;;;;;;5067171;28;20040;-81
2024/01/27 06:41:50;;;;;;;21.20;6.23;;;2.80;99.90;;;;;;5067668;28;20133;-81
2024/01/27 06:44:15;;;;;;;19.73;6.17;;;2.90;99.90;;;;;;5070312;28;20044;-81
2024/01/27 06:46:41;;;;;;;17.13;5.97;;;2.80;99.90;;;;;;5065527;28;20134;-82
2024/01/27 06:49:07;;;;;;;19.07;6.27;;;2.80;99.90;;;;;;5066031;28;20040;-82
2024/01/27 06:51:32;;;;;;;20.83;6.07;;;2.80;99.90;;;;;;5065071;28;20041;-82
2024/01/27 06:53:58;;;;;;;21.07;6.50;;;2.80;99.90;;;;;;5067343;28;20127;-82
2024/01/27 06:56:24;;;;;;;21.73;7.30;;;2.80;99.90;;;;;;5063161;28;20072;-81
2024/01/27 06:58:50;;;;;;;19.00;6.40;;;2.90;99.90;;;;;;5073761;28;20036;-81
2024/01/27 07:01:15;;;;;;;19.07;6.70;;;2.80;99.90;;;;;;5070093;28;20048;-81
2024/01/27 07:03:41;;;;;;;24.27;6.73;;;2.80;99.90;;;;;;5072110;28;20052;-80
2024/01/27 07:06:07;;;;;;;20.33;7.20;;;2.80;99.90;;;;;;5075816;28;20094;-79
2024/01/27 07:08:32;;;;;;;25.77;8.00;;;2.70;99.90;;;;;;5064044;28;20104;-80
2024/01/27 07:10:58;;;;;;;22.90;7.10;;;2.80;99.90;;;;;;5065703;28;20110;-81
2024/01/27 07:13:29;;;;;;;18.50;8.07;;;2.70;99.90;;;;;;5065183;28;20519;-80
2024/01/27 07:15:54;;;;;;;22.37;7.57;;;2.80;99.90;;;;;;5065018;28;20049;-80
2024/01/27 07:18:22;;;;;;;28.70;8.67;;;2.80;99.90;;;;;;5073415;28;20055;-80
2024/01/27 07:20:48;;;;;;;26.17;9.07;;;2.70;99.90;;;;;;5067502;28;20070;-81
2024/01/27 07:23:13;;;;;;;25.07;9.30;;;2.80;99.90;;;;;;5040043;28;20561;-81
2024/01/27 07:25:39;;;;;;;23.13;8.23;;;2.80;99.90;;;;;;5068822;28;20096;-81
2024/01/27 07:28:05;;;;;;;19.33;8.17;;;2.90;99.90;;;;;;5063417;28;20057;-81
2024/01/27 07:30:31;;;;;;;20.60;8.47;;;2.80;99.90;;;;;;5059507;28;20066;-81
2024/01/27 07:32:57;;;;;;;23.63;9.37;;;2.80;99.90;;;;;;5068756;28;20049;-80
2024/01/27 07:35:22;;;;;;;24.03;9.90;;;2.80;99.90;;;;;;5066128;28;20089;-82
2024/01/27 07:37:54;;;;;;;21.90;9.63;;;2.80;99.90;;;;;;5061118;28;20553;-81
2024/01/27 07:40:19;;;;;;;25.53;10.13;;;2.90;99.90;;;;;;5068156;28;20112;-82
2024/01/27 07:42:45;;;;;;;25.83;9.63;;;2.90;99.90;;;;;;5071947;28;20061;-82
2024/01/27 07:45:11;;;;;;;20.57;9.97;;;2.90;99.90;;;;;;5066544;28;20163;-81
2024/01/27 07:47:37;;;;;;;26.73;10.13;;;2.90;99.90;;;;;;5060176;28;20067;-83
2024/01/27 07:50:02;;;;;;;28.07;11.00;;;2.90;99.90;;;;;;5074198;28;20052;-83
2024/01/27 07:52:28;;;;;;;28.50;10.47;;;2.90;99.90;;;;;;5065929;28;20044;-83
2024/01/27 07:54:54;;;;;;;28.87;10.27;;;2.90;99.90;;;;;;5061673;28;20060;-83
2024/01/27 07:57:20;;;;;;;24.37;10.27;;;2.90;99.90;;;;;;5072164;28;20079;-83
2024/01/27 07:59:46;;;;;;;26.67;10.53;;;3.00;99.90;;;;;;5064973;28;20104;-82
2024/01/27 08:02:12;;;;;;;27.83;9.77;;;3.00;99.90;;;;;;5072637;28;20178;-83
2024/01/27 08:04:38;;;;;;;21.60;10.10;;;3.10;99.90;;;;;;5072643;28;20064;-82
2024/01/27 08:07:09;;;;;;;22.27;9.73;;;3.10;99.90;;;;;;5067150;28;20092;-83
2024/01/27 08:09:37;;;;;;;29.50;10.90;;;3.20;99.90;;;;;;5063205;28;20041;-82
2024/01/27 08:12:03;;;;;;;32.50;11.33;;;3.20;99.90;;;;;;5066819;28;20071;-83
2024/01/27 08:14:33;;;;;;;24.77;9.90;;;3.20;99.90;;;;;;5067918;28;20472;-82
2024/01/27 08:16:59;;;;;;;22.80;9.30;;;3.30;99.90;;;;;;5067048;28;20131;-83
2024/01/27 08:19:25;;;;;;;21.77;9.73;;;3.30;99.90;;;;;;5058684;28;20052;-82
2024/01/27 08:21:51;;;;;;;19.90;9.63;;;3.40;99.90;;;;;;5066450;28;20045;-82
2024/01/27 08:24:16;;;;;;;22.73;8.70;;;3.40;99.90;;;;;;5064005;28;20060;-82
2024/01/27 08:26:42;;;;;;;22.10;10.17;;;3.30;99.90;;;;;;5068236;28;20044;-83
2024/01/27 08:29:11;;;;;;;21.20;9.40;;;3.40;99.90;;;;;;5061465;28;20043;-83
2024/01/27 08:31:39;;;;;;;19.83;9.30;;;3.50;99.90;;;;;;5070133;28;20052;-83
2024/01/27 08:34:05;;;;;;;26.17;10.10;;;3.50;99.90;;;;;;5066122;28;20047;-83
2024/01/27 08:36:32;;;;;;;23.13;9.43;;;3.50;99.90;;;;;;5057605;28;20061;-82
2024/01/27 08:38:57;;;;;;;28.30;10.57;;;3.60;99.90;;;;;;5065042;28;20096;-83
2024/01/27 08:41:23;;;;;;;21.87;10.03;;;3.60;99.90;;;;;;5070006;28;20082;-82
2024/01/27 08:43:49;;;;;;;20.70;9.87;;;3.70;99.90;;;;;;5060174;28;20040;-83
2024/01/27 08:46:15;;;;;;;25.87;9.27;;;3.80;99.90;;;;;;5062363;28;20460;-82
2024/01/27 08:48:41;;;;;;;27.43;9.90;;;3.80;99.90;;;;;;5065255;28;20048;-82
2024/01/27 08:51:11;;;;;;;24.27;9.53;;;3.90;99.90;;;;;;5072301;28;20048;-83
2024/01/27 08:53:37;;;;;;;20.57;9.47;;;3.90;99.90;;;;;;5059639;28;20760;-83
2024/01/27 08:56:03;;;;;;;23.80;10.60;;;4.00;99.90;;;;;;5072592;28;20132;-83
2024/01/27 08:58:29;;;;;;;19.43;8.83;;;4.00;99.90;;;;;;5060511;28;20041;-83
2024/01/27 09:00:54;;;;;;;16.43;8.90;;;4.10;99.90;;;;;;5058160;28;20117;-83
2024/01/27 09:03:20;;;;;;;25.17;9.87;;;4.10;99.90;;;;;;5068110;28;20107;-83
2024/01/27 09:05:49;;;;;;;22.60;10.30;;;4.10;99.90;;;;;;5072766;28;20104;-83
2024/01/27 09:08:16;;;;;;;22.07;8.93;;;4.20;99.90;;;;;;5063147;28;20076;-83
2024/01/27 09:10:41;;;;;;;17.27;9.20;;;4.20;99.90;;;;;;5060423;28;20056;-82
2024/01/27 09:13:07;;;;;;;23.13;9.50;;;4.30;99.90;;;;;;5073464;28;20044;-82
2024/01/27 09:15:33;;;;;;;28.43;10.30;;;4.30;99.90;;;;;;5072860;28;20288;-82
2024/01/27 09:17:59;;;;;;;17.80;9.43;;;4.40;99.90;;;;;;5065579;28;20103;-83
2024/01/27 09:20:24;;;;;;;20.43;9.37;;;4.40;99.90;;;;;;5070123;28;20459;-83
2024/01/27 09:22:50;;;;;;;21.77;9.83;;;4.50;99.90;;;;;;5061128;28;20127;-82
2024/01/27 09:25:16;;;;;;;25.67;10.10;;;4.60;99.90;;;;;;5059892;28;20068;-82
2024/01/27 09:27:42;;;;;;;22.33;9.50;;;4.60;99.90;;;;;;5071500;28;20032;-83
2024/01/27 09:30:08;;;;;;;20.23;9.47;;;4.60;99.90;;;;;;5060296;28;20040;-82
2024/01/27 09:32:34;;;;;;;19.83;9.17;;;4.70;99.90;;;;;;5066085;28;20068;-84
2024/01/27 09:34:59;;;;;;;24.00;9.90;;;4.80;99.90;;;;;;5072224;28;20067;-83
2024/01/27 09:37:25;;;;;;;24.60;10.17;;;4.80;99.90;;;;;;5059864;28;20100;-83
2024/01/27 09:39:51;;;;;;;23.43;10.07;;;4.90;99.90;;;;;;5059203;28;20059;-82
2024/01/27 09:42:20;;;;;;;21.00;9.77;;;5.00;99.90;;;;;;5062148;28;20103;-83
2024/01/27 09:44:49;;;;;;;20.57;10.37;;;5.00;99.90;;;;;;5064553;28;20040;-82
2024/01/27 09:47:16;;;;;;;21.23;9.50;;;5.10;99.90;;;;;;5070797;28;20053;-82
2024/01/27 09:49:42;;;;;;;24.33;9.83;;;5.10;99.90;;;;;;5060079;28;20589;-82
2024/01/27 09:52:08;;;;;;;19.23;9.70;;;5.20;99.90;;;;;;5062474;28;20105;-83
2024/01/27 09:54:35;;;;;;;22.70;9.90;;;5.20;99.90;;;;;;5063100;28;20074;-81
2024/01/27 09:57:01;;;;;;;22.00;10.07;;;5.30;99.90;;;;;;5066376;28;20052;-80
2024/01/27 09:59:28;;;;;;;22.67;9.77;;;5.40;99.90;;;;;;5058638;28;20060;-82
2024/01/27 10:01:56;;;;;;;21.60;9.50;;;5.40;99.90;;;;;;5070953;28;20040;-82
2024/01/27 10:04:24;;;;;;;24.67;9.70;;;5.50;99.90;;;;;;5059681;28;20045;-81
2024/01/27 10:06:50;;;;;;;21.67;10.07;;;5.50;99.90;;;;;;5064059;28;20552;-82
2024/01/27 10:09:17;;;;;;;20.97;11.20;;;5.60;99.90;;;;;;5060591;28;20063;-82
2024/01/27 10:11:49;;;;;;;27.60;11.10;;;5.60;99.90;;;;;;5042389;28;20051;-82
2024/01/27 10:14:15;;;;;;;23.90;10.30;;;5.70;99.90;;;;;;5070105;28;20060;-82
2024/01/27 10:16:45;;;;;;;25.57;9.97;;;5.70;99.90;;;;;;5059328;28;20045;-83
2024/01/27 10:19:18;;;;;;;23.80;9.93;;;5.80;99.90;;;;;;5070534;28;20044;-82
2024/01/27 10:21:48;;;;;;;17.77;9.50;;;5.90;99.90;;;;;;5072314;28;20079;-83
2024/01/27 10:24:14;;;;;;;23.97;9.57;;;5.90;99.90;;;;;;5068077;28;20079;-82
2024/01/27 10:26:41;;;;;;;19.43;9.50;;;5.90;99.90;;;;;;5064620;28;20089;-82
2024/01/27 10:29:07;;;;;;;20.90;9.83;;;6.00;99.90;;;;;;5059204;28;20049;-83
2024/01/27 10:31:38;;;;;;;21.63;9.63;;;6.10;99.90;;;;;;5066013;28;20041;-82
2024/01/27 10:34:04;;;;;;;23.83;10.00;;;6.10;99.90;;;;;;5071526;28;20040;-82
2024/01/27 10:36:44;;;;;;;18.67;9.37;;;6.20;99.90;;;;;;5077384;28;20048;-83
2024/01/27 10:39:28;;;;;;;18.77;9.20;;;6.30;99.90;;;;;;5059568;28;20052;-82
2024/01/27 10:41:54;;;;;;;21.30;9.50;;;6.40;99.90;;;;;;5063928;28;20068;-84
2024/01/27 10:44:20;;;;;;;19.90;9.57;;;6.50;99.90;;;;;;5072643;28;20037;-83
2024/01/27 10:46:47;;;;;;;18.13;9.43;;;6.50;99.90;;;;;;5064381;28;20040;-81
2024/01/27 10:49:14;;;;;;;20.93;9.33;;;6.70;99.90;;;;;;5063166;28;20083;-82
2024/01/27 10:51:46;;;;;;;18.23;8.10;;;6.70;99.90;;;;;;5069655;28;20044;-83
2024/01/27 10:54:18;;;;;;;21.70;9.45;;;6.70;99.90;;;;;;5065515;28;20053;-83
2024/01/27 10:56:45;;;;;;;25.13;9.10;;;6.80;99.90;;;;;;5066135;28;20096;-82
2024/01/27 10:59:14;;;;;;;20.77;8.90;;;6.90;99.90;;;;;;5073760;28;20621;-82
2024/01/27 11:01:42;;;;;;;23.33;9.07;;;6.90;99.90;;;;;;5068211;28;20080;-83
2024/01/27 11:04:11;;;;;;;23.40;9.10;;;7.00;99.90;;;;;;5072165;28;20135;-82
2024/01/27 11:06:38;;;;;;;16.90;8.10;;;7.00;99.90;;;;;;5065934;28;20055;-84
2024/01/27 11:09:05;;;;;;;17.60;7.63;;;7.10;99.90;;;;;;5065696;28;20049;-83
2024/01/27 11:11:31;;;;;;;19.17;7.40;;;7.10;99.90;;;;;;5068762;28;20096;-83
2024/01/27 11:13:58;;;;;;;19.20;8.23;;;7.20;99.90;;;;;;5065977;28;20051;-83
2024/01/27 11:16:24;;;;;;;19.13;7.87;;;7.20;99.90;;;;;;5072342;28;20071;-82
2024/01/27 11:18:50;;;;;;;14.70;7.63;;;7.30;99.90;;;;;;5060331;28;20389;-83
2024/01/27 11:21:17;;;;;;;19.27;7.67;;;7.30;99.90;;;;;;5056256;28;20064;-82
2024/01/27 11:23:43;;;;;;;24.73;7.67;;;7.40;99.90;;;;;;5073270;28;20145;-84
2024/01/27 11:26:10;;;;;;;19.03;7.20;;;7.40;99.90;;;;;;5063381;28;20052;-84
2024/01/27 11:28:36;;;;;;;20.83;7.20;;;7.50;99.90;;;;;;5068059;28;20061;-83
2024/01/27 11:31:09;;;;;;;20.83;7.00;;;7.60;99.90;;;;;;5067641;28;20051;-84
2024/01/27 11:33:45;;;;;;;18.33;6.77;;;7.60;99.90;;;;;;5073497;28;20082;-83
2024/01/27 11:36:22;;;;;;;21.07;6.93;;;7.70;99.90;;;;;;5065017;28;20040;-84
2024/01/27 11:38:53;;;;;;;19.57;6.63;;;7.70;99.90;;;;;;5062379;28;20045;-85
2024/01/27 11:41:29;;;;;;;16.67;6.17;;;7.80;99.90;;;;;;5068863;28;20060;-84
2024/01/27 11:43:55;;;;;;;17.13;6.33;;;7.80;99.90;;;;;;5055872;28;20036;-83
2024/01/27 11:46:22;;;;;;;16.97;7.23;;;7.90;99.90;;;;;;5062713;28;20075;-83
2024/01/27 11:48:48;;;;;;;19.87;7.53;;;7.90;99.90;;;;;;5062529;28;20047;-81
2024/01/27 11:51:14;;;;;;;17.87;6.37;;;8.00;99.90;;;;;;5072961;28;20127;-84
2024/01/27 11:53:40;;;;;;;17.83;6.67;;;8.00;99.90;;;;;;5064158;28;20076;-83
2024/01/27 11:56:06;;;;;;;16.17;6.17;;;8.10;99.90;;;;;;5061056;28;20048;-83
2024/01/27 11:58:33;;;;;;;20.30;6.57;;;8.10;99.90;;;;;;5062242;28;20098;-84
2024/01/27 12:00:58;;;;;;;16.23;6.10;;;8.10;99.90;;;;;;5072197;28;20396;-83
2024/01/27 12:03:25;;;;;;;19.43;7.17;;;8.10;99.90;;;;;;5071460;28;20108;-83
2024/01/27 12:05:51;;;;;;;19.87;6.70;;;8.20;99.90;;;;;;5074694;28;20162;-83
2024/01/27 12:08:19;;;;;;;17.10;6.70;;;8.20;99.90;;;;;;5061233;28;20522;-83
2024/01/27 12:10:45;;;;;;;16.77;6.70;;;8.20;99.90;;;;;;5045251;28;20067;-84
2024/01/27 12:13:11;;;;;;;17.20;6.70;;;8.30;99.90;;;;;;5068643;28;20048;-83
2024/01/27 12:15:36;;;;;;;15.73;6.20;;;8.30;99.90;;;;;;5062272;28;20074;-83
2024/01/27 12:18:04;;;;;;;16.00;6.30;;;8.40;99.90;;;;;;5062126;28;20044;-84
2024/01/27 12:20:30;;;;;;;19.23;6.47;;;8.40;99.90;;;;;;5066116;28;20037;-82
2024/01/27 12:23:08;;;;;;;15.57;5.13;;;8.40;99.90;;;;;;5073399;28;20065;-85
2024/01/27 12:25:34;;;;;;;18.67;6.27;;;8.50;99.90;;;;;;5054325;28;20106;-84
2024/01/27 12:28:04;;;;;;;15.10;5.77;;;8.50;99.90;;;;;;5069747;28;20075;-84
2024/01/27 12:30:32;;;;;;;17.40;5.50;;;8.60;99.90;;;;;;5063448;28;20124;-82
2024/01/27 12:32:58;;;;;;;21.50;5.57;;;8.60;99.90;;;;;;5057835;28;20550;-84
2024/01/27 12:35:24;;;;;;;14.27;5.67;;;8.50;99.90;;;;;;5062732;28;20043;-83
2024/01/27 12:37:50;;;;;;;18.57;5.43;;;8.50;99.90;;;;;;5067047;28;20048;-84
2024/01/27 12:40:23;;;;;;;19.40;5.40;;;8.60;99.90;;;;;;5064754;28;20052;-82
2024/01/27 12:42:49;;;;;;;16.67;5.80;;;8.70;99.90;;;;;;5066678;28;20046;-84